Overview Statistics Trail Chart Weather Telemetry Raw packets
 

This is the latest recevied weather packets stored in our database for station/object N4XHQ-13. If no packets are shown the sender has not sent any weather packets the latest 10 day(s).

<< 103 104 105 106 107 108 109 >>
Time Temp. Humidity Pressure Rain* Wind** Luminosity Snow
1787788519 22.22° C 93% 1015.3 hPa 0 mm - 3 W/m² -
1787788219 22.22° C 93% 1015.2 hPa 0 mm - 4 W/m² -
1787787914 22.22° C 92% 1015.4 hPa 0 mm - 6 W/m² -
1787787609 22.22° C 92% 1015.5 hPa 0 mm - 8 W/m² -
1787787303 22.22° C 93% 1015.6 hPa 0 mm - 9 W/m² -
1787787002 22.22° C 93% 1015.4 hPa 0 mm - 11 W/m² -
1787786697 22.78° C 93% 1015.6 hPa 0 mm - 15 W/m² -
1787786396 22.78° C 93% 1015.6 hPa 0 mm - 20 W/m² -
1787786093 22.78° C 93% 1016 hPa 0 mm - 21 W/m² -
1787785788 22.78° C 93% 1016.1 hPa 0 mm - 22 W/m² -
1787785483 22.78° C 93% 1015.9 hPa 0 mm - 22 W/m² -
1787785182 22.78° C 93% 1015.7 hPa 0 mm - 18 W/m² -
1787784878 22.78° C 93% 1015.7 hPa 0 mm - 14 W/m² -
1787784577 22.78° C 92% 1015.5 hPa 0 mm - 10 W/m² -
1787784276 22.78° C 92% 1016.2 hPa 0 mm - 7 W/m² -
1787783971 22.78° C 90% 1016.3 hPa 1.27 mm - 5 W/m² -
1787783667 23.33° C 88% 1016.3 hPa 1.27 mm - 4 W/m² -
1787783366 23.89° C 84% 1016.7 hPa 0 mm - 5 W/m² -
1787783063 25.56° C 78% 1016.9 hPa 0 mm - 1 W/m² -
1787782762 27.78° C 68% 1016.6 hPa 0 mm - 1 W/m² -
1787782458 28.89° C 70% 1015.9 hPa 0 mm - 2 W/m² -
1787782157 28.89° C 67% 1015.4 hPa 0 mm - 16 W/m² -
1787781853 29.44° C 66% 1015.7 hPa 0 mm - 20 W/m² -
1787781551 29.44° C 64% 1015.4 hPa 0 mm - 34 W/m² -
1787781251 29.44° C 68% 1015.1 hPa 0 mm - 54 W/m² -

* Rain latest hour (hover to see other rain measurements)
** Current wind speed in m/s (hover to see current wind gust speed)